Time;durP1;ratioP1;P1;durP2;ratioP2;P2;SDS_P1;SDS_P2;PMS_P1;PMS_P2;Temp;Humidity;BMP_temperature;BMP_pressure;BME280_temperature;BME280_humidity;BME280_pressure;Samples;Min_cycle;Max_cycle;Signal;HPM_P1;HPM_P2
2021/09/25 00:01:55;;;;;;;7.55;5.63;;;12.30;82.00;;;;;;5052622;28;20083;-73
2021/09/25 00:04:21;;;;;;;9.13;5.40;;;12.20;82.00;;;;;;5052594;28;20056;-73
2021/09/25 00:06:46;;;;;;;6.88;5.13;;;12.20;82.00;;;;;;5052575;28;20041;-73
2021/09/25 00:09:12;;;;;;;10.20;5.20;;;12.20;81.80;;;;;;5052545;28;20172;-72
2021/09/25 00:11:37;;;;;;;7.60;5.03;;;12.20;81.80;;;;;;5052505;28;20032;-73
2021/09/25 00:14:03;;;;;;;12.18;5.68;;;12.10;81.90;;;;;;5052459;28;20100;-73
2021/09/25 00:16:29;;;;;;;9.35;5.70;;;12.10;81.90;;;;;;5052497;28;20109;-72
2021/09/25 00:18:57;;;;;;;9.90;5.40;;;12.20;81.60;;;;;;5052423;28;20025;-72
2021/09/25 00:21:23;;;;;;;11.90;5.45;;;12.10;81.70;;;;;;5052299;28;20033;-73
2021/09/25 00:23:49;;;;;;;8.27;5.35;;;12.10;81.60;;;;;;5052788;28;20112;-73
2021/09/25 00:26:15;;;;;;;8.05;5.40;;;12.00;81.90;;;;;;5052362;28;20033;-73
2021/09/25 00:28:41;;;;;;;8.55;5.90;;;12.00;82.30;;;;;;5052368;28;20013;-71
2021/09/25 00:31:06;;;;;;;11.85;5.82;;;11.90;82.60;;;;;;5052506;28;20025;-71
2021/09/25 00:33:32;;;;;;;10.82;6.20;;;11.80;82.90;;;;;;5052271;28;20519;-71
2021/09/25 00:35:57;;;;;;;8.80;5.30;;;11.90;83.10;;;;;;5052138;28;20396;-71
2021/09/25 00:38:23;;;;;;;9.43;5.65;;;11.80;82.90;;;;;;5052203;28;20025;-71
2021/09/25 00:40:49;;;;;;;8.70;5.72;;;11.90;82.70;;;;;;5050683;28;20043;-71
2021/09/25 00:43:14;;;;;;;8.85;6.05;;;11.80;82.40;;;;;;5054532;28;20137;-71
2021/09/25 00:45:40;;;;;;;7.20;5.75;;;11.90;82.50;;;;;;5055724;28;20389;-72
2021/09/25 00:48:06;;;;;;;8.07;4.65;;;11.80;82.50;;;;;;5055650;28;20104;-72
2021/09/25 00:50:32;;;;;;;9.52;5.28;;;11.90;82.60;;;;;;5055453;28;20028;-71
2021/09/25 00:52:57;;;;;;;7.57;4.95;;;11.80;82.70;;;;;;5055614;28;20017;-73
2021/09/25 00:55:24;;;;;;;10.27;5.20;;;11.80;82.40;;;;;;5055596;28;20067;-73
2021/09/25 00:57:56;;;;;;;7.93;5.40;;;11.70;82.40;;;;;;5054411;28;20473;-73
2021/09/25 01:00:21;;;;;;;11.60;5.55;;;11.80;82.40;;;;;;5055383;28;20124;-73
2021/09/25 01:02:47;;;;;;;7.80;4.90;;;11.80;82.20;;;;;;5055562;28;20143;-72
2021/09/25 01:05:16;;;;;;;9.27;4.85;;;11.80;82.00;;;;;;5055512;28;20036;-75
2021/09/25 01:07:41;;;;;;;8.60;5.20;;;11.80;82.40;;;;;;5055560;28;20025;-73
2021/09/25 01:10:07;;;;;;;10.80;5.47;;;11.80;82.50;;;;;;5055525;28;20033;-72
2021/09/25 01:12:33;;;;;;;8.73;5.25;;;11.80;82.60;;;;;;5055397;28;20044;-73
2021/09/25 01:14:59;;;;;;;7.63;5.05;;;11.80;82.50;;;;;;5055424;28;20099;-73
2021/09/25 01:17:24;;;;;;;6.93;5.53;;;11.80;82.30;;;;;;5055329;28;20056;-74
2021/09/25 01:19:51;;;;;;;5.93;4.75;;;11.80;82.10;;;;;;5055203;28;20033;-74
2021/09/25 01:22:16;;;;;;;7.20;4.75;;;11.70;82.20;;;;;;5055215;28;20075;-73
2021/09/25 01:24:42;;;;;;;7.53;5.00;;;11.60;82.20;;;;;;5055266;28;20025;-74
2021/09/25 01:27:08;;;;;;;7.93;4.50;;;11.60;82.20;;;;;;5055126;28;20131;-74
2021/09/25 01:29:35;;;;;;;6.68;4.13;;;11.60;81.70;;;;;;5053897;28;20431;-74
2021/09/25 01:32:01;;;;;;;8.18;4.50;;;11.70;81.40;;;;;;5055235;28;20021;-73
2021/09/25 01:34:27;;;;;;;6.70;4.70;;;11.80;81.10;;;;;;5054801;28;20098;-73
2021/09/25 01:36:53;;;;;;;8.30;4.78;;;11.80;81.00;;;;;;5054676;28;20466;-74
2021/09/25 01:39:18;;;;;;;8.10;5.18;;;11.70;81.10;;;;;;5054803;28;20029;-73
2021/09/25 01:41:44;;;;;;;8.00;4.72;;;11.70;81.50;;;;;;5054851;28;20160;-73
2021/09/25 01:44:10;;;;;;;7.18;5.05;;;11.70;81.80;;;;;;5054822;28;20377;-74
2021/09/25 01:46:36;;;;;;;8.50;5.03;;;11.70;81.70;;;;;;5054631;28;20040;-74
2021/09/25 01:49:02;;;;;;;6.78;4.78;;;11.60;81.70;;;;;;5054573;28;20029;-71
2021/09/25 01:51:27;;;;;;;7.53;5.00;;;11.60;82.30;;;;;;5054631;28;20032;-72
2021/09/25 01:53:53;;;;;;;7.43;4.97;;;11.60;82.40;;;;;;5053335;28;20386;-72
2021/09/25 01:56:19;;;;;;;8.63;5.78;;;11.60;82.50;;;;;;5054614;28;20112;-71
2021/09/25 01:58:45;;;;;;;8.18;5.18;;;11.50;82.50;;;;;;5054560;28;20021;-72
2021/09/25 02:01:11;;;;;;;8.70;4.97;;;11.50;82.40;;;;;;5054278;28;20132;-72
2021/09/25 02:03:37;;;;;;;6.05;4.45;;;11.40;82.50;;;;;;5054419;28;20025;-72
2021/09/25 02:06:08;;;;;;;8.43;4.93;;;11.40;82.70;;;;;;5054147;28;20036;-71
2021/09/25 02:08:34;;;;;;;8.38;4.93;;;11.40;82.80;;;;;;5054263;28;20021;-71
2021/09/25 02:11:00;;;;;;;9.10;4.68;;;11.40;83.00;;;;;;5054285;28;20154;-72
2021/09/25 02:13:27;;;;;;;7.38;4.85;;;11.40;83.20;;;;;;5036379;28;20047;-71
2021/09/25 02:15:53;;;;;;;8.48;5.10;;;11.40;83.00;;;;;;5054181;28;20025;-72
2021/09/25 02:18:19;;;;;;;7.97;4.55;;;11.40;83.00;;;;;;5054151;28;20033;-71
2021/09/25 02:20:45;;;;;;;6.63;4.72;;;11.40;82.90;;;;;;5054141;28;20465;-72
2021/09/25 02:23:11;;;;;;;9.35;4.47;;;11.50;82.70;;;;;;5054032;28;20029;-72
2021/09/25 02:25:36;;;;;;;8.25;4.70;;;11.50;82.50;;;;;;5058807;28;20029;-72
2021/09/25 02:28:02;;;;;;;5.55;4.38;;;11.50;82.50;;;;;;5068962;28;20044;-71
2021/09/25 02:30:29;;;;;;;18.42;5.22;;;11.50;82.50;;;;;;5070410;28;20025;-73
2021/09/25 02:32:55;;;;;;;6.07;4.75;;;11.40;82.80;;;;;;5054822;28;20098;-71
2021/09/25 02:35:21;;;;;;;6.28;4.68;;;11.40;82.90;;;;;;5053902;28;20100;-72
2021/09/25 02:37:49;;;;;;;6.38;4.78;;;11.40;82.30;;;;;;5053950;28;20029;-72
2021/09/25 02:40:16;;;;;;;6.97;4.63;;;11.30;81.90;;;;;;5053786;28;20086;-71
2021/09/25 02:42:42;;;;;;;6.25;4.82;;;11.30;82.00;;;;;;5053791;28;20025;-72
2021/09/25 02:45:08;;;;;;;7.35;4.82;;;11.30;82.20;;;;;;5053420;28;20025;-74
2021/09/25 02:47:34;;;;;;;8.32;4.38;;;11.20;82.40;;;;;;5053721;28;20053;-74
2021/09/25 02:50:00;;;;;;;9.55;4.60;;;11.20;82.70;;;;;;5053669;28;20028;-73
2021/09/25 02:52:28;;;;;;;6.65;4.90;;;11.10;83.00;;;;;;5053574;28;20142;-74
2021/09/25 02:54:54;;;;;;;5.22;4.38;;;11.10;82.70;;;;;;5053636;28;20021;-74
2021/09/25 02:57:20;;;;;;;7.75;4.75;;;11.10;83.70;;;;;;5052290;28;20446;-74
2021/09/25 02:59:45;;;;;;;6.95;4.40;;;11.00;83.00;;;;;;5053494;28;20351;-73
2021/09/25 03:02:11;;;;;;;6.13;4.50;;;11.10;82.70;;;;;;5053163;28;20498;-73
2021/09/25 03:04:36;;;;;;;5.75;4.03;;;11.10;82.60;;;;;;5053123;28;20033;-73
2021/09/25 03:07:03;;;;;;;5.53;4.20;;;11.00;82.50;;;;;;5053266;28;20041;-73
2021/09/25 03:09:29;;;;;;;6.53;4.32;;;11.00;82.50;;;;;;5053046;28;20025;-73
2021/09/25 03:11:54;;;;;;;6.43;4.22;;;11.00;82.80;;;;;;5053181;28;20056;-72
2021/09/25 03:14:20;;;;;;;5.85;4.45;;;11.00;82.60;;;;;;5035335;28;20032;-72
2021/09/25 03:16:46;;;;;;;9.90;4.45;;;11.00;82.50;;;;;;5053114;28;20147;-72
2021/09/25 03:19:11;;;;;;;7.20;4.35;;;11.10;82.50;;;;;;5053089;28;20107;-72
2021/09/25 03:21:37;;;;;;;5.07;3.95;;;11.10;82.50;;;;;;5053068;28;20025;-71
2021/09/25 03:24:03;;;;;;;7.03;4.60;;;11.10;82.30;;;;;;5053047;28;20501;-72
2021/09/25 03:26:29;;;;;;;5.88;4.03;;;11.10;82.20;;;;;;5053097;28;20099;-72
2021/09/25 03:28:55;;;;;;;5.47;4.07;;;11.10;82.10;;;;;;5052866;28;20024;-71
2021/09/25 03:31:20;;;;;;;7.15;4.25;;;11.10;82.00;;;;;;5052918;28;20025;-71
2021/09/25 03:33:46;;;;;;;9.68;3.78;;;11.20;81.80;;;;;;5052981;28;20507;-71
2021/09/25 03:36:11;;;;;;;4.97;3.45;;;11.20;81.50;;;;;;5052809;28;20037;-72
2021/09/25 03:38:37;;;;;;;4.07;3.10;;;11.30;81.20;;;;;;5052812;28;20416;-72
2021/09/25 03:41:03;;;;;;;6.32;3.67;;;11.40;81.00;;;;;;5034889;28;20021;-72
2021/09/25 03:43:29;;;;;;;4.78;3.70;;;11.30;81.00;;;;;;5052711;28;20115;-72
2021/09/25 03:45:55;;;;;;;4.43;3.80;;;11.30;81.10;;;;;;5052803;28;20033;-72
2021/09/25 03:48:20;;;;;;;6.07;3.75;;;11.30;81.00;;;;;;5052716;28;20079;-73
2021/09/25 03:50:46;;;;;;;7.55;4.18;;;11.30;81.10;;;;;;5052689;28;20028;-72
2021/09/25 03:53:11;;;;;;;4.32;3.83;;;11.30;81.20;;;;;;5052608;28;20036;-72
2021/09/25 03:55:37;;;;;;;5.32;3.80;;;11.30;82.30;;;;;;5052695;28;20542;-72
2021/09/25 03:58:03;;;;;;;6.13;4.25;;;11.30;81.30;;;;;;5052788;28;20078;-73
2021/09/25 04:00:28;;;;;;;5.85;4.03;;;11.20;81.20;;;;;;5052493;28;20428;-72
2021/09/25 04:02:54;;;;;;;7.78;4.53;;;11.20;81.30;;;;;;5052708;28;20033;-72
2021/09/25 04:05:20;;;;;;;5.57;3.55;;;11.20;81.40;;;;;;5052674;28;20047;-72
2021/09/25 04:07:47;;;;;;;7.65;3.80;;;11.20;81.20;;;;;;5052539;28;20025;-72
2021/09/25 04:10:14;;;;;;;5.40;4.03;;;11.30;81.00;;;;;;5052568;28;20031;-72
2021/09/25 04:12:40;;;;;;;6.43;4.13;;;11.30;80.90;;;;;;5052372;28;20031;-72
2021/09/25 04:15:08;;;;;;;6.68;4.13;;;11.20;80.90;;;;;;5052382;28;20029;-72
2021/09/25 04:17:35;;;;;;;6.40;4.38;;;11.20;81.00;;;;;;5054013;28;20163;-72
2021/09/25 04:20:02;;;;;;;7.70;4.15;;;11.20;81.00;;;;;;5056355;28;20432;-72
2021/09/25 04:22:28;;;;;;;6.72;4.10;;;11.20;81.10;;;;;;5056416;28;20441;-72
2021/09/25 04:24:53;;;;;;;7.32;3.80;;;11.20;81.00;;;;;;5056321;28;20053;-73
2021/09/25 04:27:19;;;;;;;12.18;4.57;;;11.20;80.90;;;;;;5056377;28;20500;-73
2021/09/25 04:29:44;;;;;;;7.22;4.10;;;11.20;81.00;;;;;;5056236;28;20027;-72
2021/09/25 04:32:10;;;;;;;5.13;4.10;;;11.30;81.10;;;;;;5056076;28;20025;-72
2021/09/25 04:34:35;;;;;;;5.50;4.30;;;11.30;81.00;;;;;;5056079;28;20028;-72
2021/09/25 04:37:01;;;;;;;7.95;4.00;;;11.30;80.90;;;;;;5055877;28;20041;-72
2021/09/25 04:39:26;;;;;;;8.65;3.88;;;11.30;81.00;;;;;;5056183;28;20366;-72
2021/09/25 04:41:53;;;;;;;8.00;4.25;;;11.20;81.00;;;;;;5056064;28;20099;-72
2021/09/25 04:44:18;;;;;;;5.60;3.97;;;11.30;81.00;;;;;;5055881;28;20029;-72
2021/09/25 04:46:45;;;;;;;5.00;3.90;;;11.30;80.80;;;;;;5055871;28;20036;-72
2021/09/25 04:49:11;;;;;;;7.05;4.30;;;11.30;81.70;;;;;;5055662;28;20025;-71
2021/09/25 04:51:36;;;;;;;9.38;4.22;;;11.30;81.10;;;;;;5055682;28;20474;-72
2021/09/25 04:54:03;;;;;;;6.60;4.03;;;11.30;81.20;;;;;;5055555;28;20078;-73
2021/09/25 04:56:30;;;;;;;6.78;4.13;;;11.30;81.50;;;;;;5055534;28;20047;-72
2021/09/25 04:58:56;;;;;;;7.78;4.35;;;11.20;81.20;;;;;;5055717;28;20380;-71
2021/09/25 05:01:21;;;;;;;5.32;4.20;;;11.30;81.30;;;;;;5055338;28;20049;-72
2021/09/25 05:03:48;;;;;;;7.53;4.55;;;11.30;81.40;;;;;;5055547;28;20071;-71
2021/09/25 05:06:14;;;;;;;8.27;4.38;;;11.30;81.50;;;;;;5055488;28;20025;-72
2021/09/25 05:08:40;;;;;;;9.77;4.18;;;11.30;81.40;;;;;;5055586;28;20028;-72
2021/09/25 05:11:05;;;;;;;5.68;4.28;;;11.30;81.30;;;;;;5055391;28;20033;-71
2021/09/25 05:13:31;;;;;;;5.15;3.65;;;11.30;81.20;;;;;;5055524;28;20013;-72
2021/09/25 05:15:56;;;;;;;7.75;4.10;;;11.30;81.40;;;;;;5055344;28;20389;-71
2021/09/25 05:18:22;;;;;;;6.00;4.32;;;11.30;81.50;;;;;;5053976;28;20033;-72
2021/09/25 05:20:47;;;;;;;8.48;4.30;;;11.30;81.70;;;;;;5055268;28;20021;-72
2021/09/25 05:23:13;;;;;;;10.60;4.85;;;11.40;81.60;;;;;;5054206;28;20422;-72
2021/09/25 05:25:39;;;;;;;8.13;4.78;;;11.30;81.80;;;;;;5050189;28;20025;-72
2021/09/25 05:28:04;;;;;;;5.82;4.22;;;11.40;81.80;;;;;;5054966;28;20122;-72
2021/09/25 05:30:30;;;;;;;7.15;4.18;;;11.40;82.00;;;;;;5054158;28;20118;-71
2021/09/25 05:32:56;;;;;;;7.15;4.45;;;11.40;82.80;;;;;;5044354;28;20057;-71
2021/09/25 05:35:21;;;;;;;6.72;4.35;;;11.40;82.20;;;;;;5045000;28;20110;-72
2021/09/25 05:37:47;;;;;;;6.20;4.93;;;11.50;82.60;;;;;;5053291;28;20052;-72
2021/09/25 05:40:14;;;;;;;5.85;4.35;;;11.50;82.40;;;;;;5054502;28;20017;-72
2021/09/25 05:42:40;;;;;;;6.88;4.30;;;11.50;82.50;;;;;;5054808;28;20029;-72
2021/09/25 05:45:06;;;;;;;6.70;4.43;;;11.50;82.50;;;;;;5053352;28;20027;-72
2021/09/25 05:47:31;;;;;;;10.10;5.15;;;11.60;82.60;;;;;;5054613;28;20103;-72
2021/09/25 05:49:57;;;;;;;6.65;4.75;;;11.60;82.50;;;;;;5054571;28;20024;-72
2021/09/25 05:52:23;;;;;;;7.55;5.03;;;11.70;82.50;;;;;;5054526;28;20517;-72
2021/09/25 05:54:48;;;;;;;8.73;4.75;;;11.70;82.30;;;;;;5054241;28;20104;-73
2021/09/25 05:57:14;;;;;;;10.85;5.47;;;11.90;82.40;;;;;;5053067;28;20424;-73
2021/09/25 05:59:40;;;;;;;7.07;5.55;;;11.90;82.20;;;;;;5054388;28;20495;-73
2021/09/25 06:02:05;;;;;;;7.57;4.68;;;12.00;82.10;;;;;;5054197;28;20183;-73
2021/09/25 06:04:32;;;;;;;9.13;5.05;;;12.10;82.10;;;;;;5054119;28;20389;-72
2021/09/25 06:06:58;;;;;;;6.40;4.53;;;12.20;81.60;;;;;;5052904;28;20030;-71
2021/09/25 06:09:24;;;;;;;8.70;5.65;;;12.30;81.50;;;;;;5054301;28;20039;-72
2021/09/25 06:11:52;;;;;;;8.40;5.70;;;12.40;81.30;;;;;;5054047;28;20024;-72
2021/09/25 06:14:18;;;;;;;7.38;5.40;;;12.40;81.30;;;;;;5054075;28;20029;-72
2021/09/25 06:16:44;;;;;;;9.38;5.18;;;12.50;81.40;;;;;;5054032;28;20033;-73
2021/09/25 06:19:12;;;;;;;7.88;5.70;;;12.50;81.40;;;;;;5053961;28;20151;-73
2021/09/25 06:21:37;;;;;;;7.38;5.30;;;12.60;81.10;;;;;;5053826;28;20029;-73
2021/09/25 06:24:03;;;;;;;8.68;5.20;;;12.60;81.00;;;;;;5053787;28;20353;-73
2021/09/25 06:26:29;;;;;;;8.00;5.45;;;12.70;80.80;;;;;;5052667;28;20382;-73
2021/09/25 06:28:54;;;;;;;5.43;4.55;;;12.80;80.50;;;;;;5054024;28;20025;-72
2021/09/25 06:31:20;;;;;;;8.43;4.75;;;12.90;80.20;;;;;;5053285;28;20037;-72
2021/09/25 06:33:46;;;;;;;9.32;5.72;;;13.10;79.90;;;;;;5053545;28;20024;-73
2021/09/25 06:36:12;;;;;;;6.28;4.70;;;13.10;79.50;;;;;;5053337;28;20036;-75
2021/09/25 06:38:38;;;;;;;8.00;5.47;;;13.20;79.30;;;;;;5053590;28;20032;-73
2021/09/25 06:41:05;;;;;;;9.45;5.70;;;13.30;78.00;;;;;;5052859;28;20029;-73
2021/09/25 06:43:31;;;;;;;8.05;6.20;;;13.40;77.80;;;;;;5052461;28;20167;-73
2021/09/25 06:45:56;;;;;;;6.25;4.75;;;13.50;77.80;;;;;;5053969;28;20108;-74
2021/09/25 06:48:22;;;;;;;8.57;5.55;;;13.50;76.90;;;;;;5053752;28;20522;-72
2021/09/25 06:50:47;;;;;;;7.68;5.18;;;13.50;76.50;;;;;;5053505;28;20100;-73
2021/09/25 06:53:13;;;;;;;7.18;5.35;;;13.60;76.50;;;;;;5053323;28;20039;-73
2021/09/25 06:55:39;;;;;;;8.90;5.43;;;13.60;76.30;;;;;;5053449;28;20049;-72
2021/09/25 06:58:06;;;;;;;6.85;4.78;;;13.70;76.10;;;;;;5053434;28;20060;-73
2021/09/25 07:00:32;;;;;;;6.97;5.00;;;13.80;76.00;;;;;;5053427;28;20099;-73
2021/09/25 07:02:58;;;;;;;8.20;5.43;;;13.90;75.80;;;;;;5053124;28;20485;-73
2021/09/25 07:05:23;;;;;;;7.03;5.05;;;13.90;75.70;;;;;;5053140;28;20037;-73
2021/09/25 07:07:50;;;;;;;7.65;4.63;;;14.00;76.00;;;;;;5053364;28;20040;-73
2021/09/25 07:10:16;;;;;;;7.63;5.72;;;14.10;76.00;;;;;;5053342;28;20024;-73
2021/09/25 07:12:42;;;;;;;9.93;5.65;;;14.00;76.10;;;;;;5053192;28;20032;-72
2021/09/25 07:15:09;;;;;;;11.15;5.95;;;14.10;76.20;;;;;;5052930;28;20398;-72
2021/09/25 07:17:35;;;;;;;7.22;5.63;;;14.20;76.00;;;;;;5053062;28;20033;-73
2021/09/25 07:20:02;;;;;;;8.75;5.28;;;14.30;76.30;;;;;;5053198;28;20017;-72
2021/09/25 07:22:27;;;;;;;6.65;5.10;;;14.50;76.40;;;;;;5053130;28;20036;-72
2021/09/25 07:24:54;;;;;;;12.95;6.10;;;14.50;76.10;;;;;;5052958;28;20024;-73
2021/09/25 07:27:24;;;;;;;11.82;6.18;;;14.70;75.70;;;;;;5051497;28;20440;-72
2021/09/25 07:29:49;;;;;;;8.90;5.53;;;14.90;75.50;;;;;;5053923;28;20025;-74
2021/09/25 07:32:17;;;;;;;21.67;5.80;;;14.90;75.10;;;;;;5052917;28;20017;-73
2021/09/25 07:34:42;;;;;;;13.40;5.90;;;15.20;77.20;;;;;;5057070;28;20070;-73
2021/09/25 07:37:08;;;;;;;10.20;4.97;;;15.50;77.60;;;;;;5059446;28;20060;-74
2021/09/25 07:39:35;;;;;;;7.60;5.38;;;15.70;75.60;;;;;;5059987;28;20164;-77
2021/09/25 07:42:01;;;;;;;12.95;5.72;;;16.00;74.30;;;;;;5057160;28;20029;-77
2021/09/25 07:44:27;;;;;;;9.90;6.05;;;16.20;72.90;;;;;;5058149;28;20089;-76
2021/09/25 07:46:52;;;;;;;8.80;5.70;;;16.30;72.60;;;;;;5061543;28;20025;-78
2021/09/25 07:49:18;;;;;;;9.85;5.53;;;16.50;71.70;;;;;;5062792;28;20029;-78
2021/09/25 07:51:43;;;;;;;11.25;5.70;;;16.40;71.40;;;;;;5054237;28;20033;-77
2021/09/25 07:54:09;;;;;;;12.80;6.13;;;16.60;71.60;;;;;;5057112;28;20025;-77
2021/09/25 07:56:35;;;;;;;9.85;5.72;;;16.50;71.70;;;;;;5056937;28;20040;-77
2021/09/25 07:59:00;;;;;;;12.35;7.03;;;16.70;71.80;;;;;;5057197;28;20036;-79
2021/09/25 08:01:26;;;;;;;11.38;5.47;;;16.80;71.00;;;;;;5057245;28;20072;-78
2021/09/25 08:03:51;;;;;;;11.10;6.13;;;16.90;71.40;;;;;;5057321;28;20054;-78
2021/09/25 08:06:19;;;;;;;14.57;6.50;;;16.90;71.80;;;;;;5057058;28;20029;-79
2021/09/25 08:08:45;;;;;;;14.32;6.47;;;17.10;71.80;;;;;;5056886;28;20024;-79
2021/09/25 08:11:10;;;;;;;13.32;6.63;;;16.90;72.20;;;;;;5056879;28;20453;-79
2021/09/25 08:13:36;;;;;;;14.75;6.32;;;17.10;72.30;;;;;;5056439;28;20027;-80
2021/09/25 08:16:02;;;;;;;10.27;7.35;;;17.30;72.10;;;;;;5056480;28;20120;-80
2021/09/25 08:18:28;;;;;;;15.80;6.65;;;17.40;71.60;;;;;;5055251;28;20531;-80
2021/09/25 08:20:54;;;;;;;15.15;7.93;;;17.30;72.20;;;;;;5056374;28;20466;-80
2021/09/25 08:23:20;;;;;;;11.60;6.57;;;17.40;72.00;;;;;;5055982;28;20028;-78
2021/09/25 08:25:45;;;;;;;11.25;7.45;;;17.50;72.00;;;;;;5056093;28;20108;-78
2021/09/25 08:28:11;;;;;;;9.60;6.20;;;17.70;71.60;;;;;;5056096;28;20036;-78
2021/09/25 08:30:37;;;;;;;13.35;7.97;;;17.90;71.30;;;;;;5056118;28;20025;-79
2021/09/25 08:33:02;;;;;;;8.68;6.57;;;18.10;70.90;;;;;;5049443;28;20025;-79
2021/09/25 08:35:29;;;;;;;10.02;5.82;;;18.40;70.50;;;;;;5036196;28;20482;-78
2021/09/25 08:37:55;;;;;;;8.80;5.78;;;18.60;69.50;;;;;;5036113;28;20363;-78
2021/09/25 08:40:22;;;;;;;8.93;5.85;;;18.90;68.70;;;;;;5035876;28;20030;-78
2021/09/25 08:42:49;;;;;;;15.43;6.65;;;19.00;69.20;;;;;;5035854;28;20462;-79
2021/09/25 08:45:15;;;;;;;16.73;7.40;;;19.10;68.60;;;;;;5035716;28;20442;-79
2021/09/25 08:47:41;;;;;;;10.65;7.05;;;19.20;70.00;;;;;;5035613;28;20104;-77
2021/09/25 08:50:09;;;;;;;12.95;6.53;;;19.30;70.00;;;;;;5035543;28;20108;-78
2021/09/25 08:52:34;;;;;;;8.05;6.03;;;19.30;68.30;;;;;;5035685;28;20022;-76
2021/09/25 08:55:00;;;;;;;9.00;6.65;;;19.40;68.50;;;;;;5035649;28;20028;-78
2021/09/25 08:57:26;;;;;;;12.80;6.10;;;19.60;68.00;;;;;;5035680;28;20049;-77
2021/09/25 08:59:51;;;;;;;8.85;5.97;;;19.70;67.80;;;;;;5035694;28;20083;-77
2021/09/25 09:02:22;;;;;;;12.77;5.93;;;19.90;67.30;;;;;;5035337;28;20060;-79
2021/09/25 09:04:53;;;;;;;10.82;6.28;;;20.10;67.00;;;;;;5034958;28;20029;-76
2021/09/25 09:07:22;;;;;;;9.95;5.82;;;20.20;66.60;;;;;;5035424;28;20049;-76
2021/09/25 09:09:48;;;;;;;7.97;5.80;;;20.40;68.00;;;;;;5035001;28;20100;-75
2021/09/25 09:12:20;;;;;;;7.28;5.30;;;20.60;68.70;;;;;;5017129;28;20052;-75
2021/09/25 09:14:47;;;;;;;10.00;5.35;;;20.80;67.70;;;;;;5035439;28;20378;-76
2021/09/25 09:17:14;;;;;;;8.02;6.28;;;21.00;66.00;;;;;;5034831;28;20064;-76
2021/09/25 09:19:41;;;;;;;11.40;5.57;;;21.10;64.20;;;;;;5034982;28;20482;-76
2021/09/25 09:22:07;;;;;;;14.15;6.47;;;21.30;64.30;;;;;;5034913;28;20478;-76
2021/09/25 09:24:44;;;;;;;7.82;5.20;;;21.40;64.20;;;;;;5034924;28;20033;-76
2021/09/25 09:27:18;;;;;;;6.35;4.82;;;21.50;63.50;;;;;;5034714;28;20025;-76
2021/09/25 09:29:44;;;;;;;8.60;5.45;;;21.70;63.10;;;;;;5034571;28;20030;-76
2021/09/25 09:32:12;;;;;;;8.55;4.93;;;21.90;62.30;;;;;;5034381;28;20049;-76
2021/09/25 09:34:40;;;;;;;5.85;4.45;;;22.00;61.40;;;;;;5034861;28;20360;-75
2021/09/25 09:37:18;;;;;;;11.10;4.97;;;22.10;61.40;;;;;;5034154;28;20025;-75
2021/09/25 09:39:57;;;;;;;9.60;5.00;;;22.20;60.50;;;;;;5034118;28;20021;-76
2021/09/25 09:42:23;;;;;;;11.15;5.13;;;22.20;59.90;;;;;;5034328;28;20033;-76
2021/09/25 09:44:51;;;;;;;10.32;5.47;;;22.30;60.10;;;;;;5034094;28;20428;-75
2021/09/25 09:47:21;;;;;;;8.07;5.35;;;22.50;59.40;;;;;;5033932;28;20037;-76
2021/09/25 09:49:55;;;;;;;8.20;4.25;;;22.50;59.30;;;;;;5034147;28;20021;-76
2021/09/25 09:52:21;;;;;;;5.15;4.63;;;22.60;58.00;;;;;;5033738;28;20021;-76
2021/09/25 09:54:47;;;;;;;4.72;3.80;;;22.80;57.90;;;;;;5016242;28;20025;-76
2021/09/25 09:57:18;;;;;;;4.65;3.60;;;22.90;55.50;;;;;;5033811;28;20053;-76
2021/09/25 09:59:45;;;;;;;8.90;3.50;;;23.20;56.20;;;;;;5034000;28;20025;-76
2021/09/25 10:02:12;;;;;;;3.78;3.17;;;23.40;53.70;;;;;;5033558;28;20053;-76
2021/09/25 10:04:38;;;;;;;5.70;3.50;;;23.70;53.20;;;;;;5052801;28;20032;-76
2021/09/25 10:07:04;;;;;;;4.93;3.30;;;23.80;52.60;;;;;;5045925;28;20032;-75
2021/09/25 10:09:32;;;;;;;3.92;3.13;;;23.80;51.50;;;;;;5053299;28;20064;-75
2021/09/25 10:12:04;;;;;;;3.30;3.00;;;24.00;51.10;;;;;;5053214;28;20032;-74
2021/09/25 10:14:32;;;;;;;3.67;3.15;;;24.20;49.90;;;;;;5052642;28;20056;-76
2021/09/25 10:17:00;;;;;;;3.42;3.08;;;24.20;48.80;;;;;;5052995;28;20043;-75
2021/09/25 10:19:33;;;;;;;3.72;2.97;;;24.40;47.50;;;;;;5051742;28;20174;-75
2021/09/25 10:22:09;;;;;;;3.70;3.40;;;24.40;47.20;;;;;;5053260;28;20149;-75
2021/09/25 10:24:38;;;;;;;3.53;3.22;;;24.40;47.60;;;;;;5053642;28;20028;-74
2021/09/25 10:27:07;;;;;;;8.02;3.58;;;24.60;46.70;;;;;;5053136;28;20017;-75
2021/09/25 10:29:32;;;;;;;4.68;3.13;;;24.80;45.70;;;;;;5053059;28;20032;-74
2021/09/25 10:32:22;;;;;;;5.93;3.50;;;24.90;46.40;;;;;;5053151;28;20031;-73
2021/09/25 10:35:08;;;;;;;2.50;2.30;;;25.20;45.50;;;;;;5053175;28;20025;-73
2021/09/25 10:37:38;;;;;;;2.95;2.20;;;25.30;41.50;;;;;;5039230;28;20102;-72
2021/09/25 10:40:10;;;;;;;2.95;2.45;;;25.40;41.00;;;;;;5052661;28;20032;-72
2021/09/25 10:43:16;;;;;;;3.78;2.38;;;25.40;40.70;;;;;;5052867;28;20100;-72
2021/09/25 10:45:43;;;;;;;2.33;2.13;;;25.30;40.80;;;;;;5035190;28;20031;-72
2021/09/25 10:48:24;;;;;;;4.40;2.60;;;25.50;39.80;;;;;;5052772;28;20025;-72
2021/09/25 10:51:06;;;;;;;2.10;1.90;;;25.60;39.50;;;;;;5052920;28;20029;-73
2021/09/25 10:53:36;;;;;;;1.90;1.80;;;25.80;38.90;;;;;;5052997;28;20374;-72
2021/09/25 10:56:05;;;;;;;2.78;1.88;;;26.00;38.70;;;;;;5053367;28;20052;-73
2021/09/25 10:58:37;;;;;;;4.10;2.20;;;26.10;39.50;;;;;;5053035;28;20025;-73
2021/09/25 11:01:11;;;;;;;2.45;1.52;;;26.10;38.60;;;;;;5052820;28;20052;-72
2021/09/25 11:03:48;;;;;;;2.35;1.60;;;26.30;37.00;;;;;;5053061;28;20445;-72
2021/09/25 11:06:39;;;;;;;2.00;1.67;;;26.40;35.20;;;;;;5052933;28;20025;-73
2021/09/25 11:09:07;;;;;;;3.30;2.15;;;26.40;35.50;;;;;;5052692;28;20029;-73
2021/09/25 11:11:46;;;;;;;3.90;2.00;;;26.40;36.50;;;;;;5052743;28;20029;-73
2021/09/25 11:14:20;;;;;;;4.10;2.20;;;26.70;36.30;;;;;;5052691;28;20427;-72
2021/09/25 11:17:24;;;;;;;4.72;2.30;;;26.60;36.70;;;;;;5052594;28;20040;-74
2021/09/25 11:19:58;;;;;;;1.80;1.70;;;26.80;37.10;;;;;;5052430;28;20502;-73
2021/09/25 11:22:33;;;;;;;5.32;1.92;;;26.60;36.20;;;;;;5052737;28;20025;-72
2021/09/25 11:25:01;;;;;;;;;;;26.70;37.30;;;;;;5053076;28;20032;-72
2021/09/25 11:27:31;;;;;;;4.30;2.33;;;27.00;37.10;;;;;;5052328;28;19905;-73
2021/09/25 11:30:06;;;;;;;2.50;1.48;;;27.30;36.60;;;;;;5052712;28;20063;-73
2021/09/25 11:32:42;;;;;;;2.40;1.30;;;27.40;36.90;;;;;;5052535;28;20091;-73
2021/09/25 11:35:20;;;;;;;5.45;1.60;;;27.70;34.00;;;;;;5052389;28;20024;-73
2021/09/25 11:37:58;;;;;;;2.72;1.50;;;28.10;33.10;;;;;;5034565;28;20033;-73
2021/09/25 11:40:28;;;;;;;1.75;1.55;;;28.60;33.90;;;;;;5045362;28;20078;-73
2021/09/25 11:43:07;;;;;;;3.10;1.75;;;28.40;32.80;;;;;;5014740;28;20471;-73
2021/09/25 11:45:40;;;;;;;3.92;1.55;;;28.50;33.40;;;;;;5031819;28;20091;-72
2021/09/25 11:48:07;;;;;;;1.60;1.45;;;28.60;32.40;;;;;;5032387;28;20117;-73
2021/09/25 11:50:36;;;;;;;2.47;1.70;;;28.80;31.90;;;;;;5032247;28;20036;-72
2021/09/25 11:53:08;;;;;;;2.47;1.70;;;28.90;31.20;;;;;;5014467;28;20029;-73
2021/09/25 11:55:36;;;;;;;1.80;1.40;;;29.20;31.70;;;;;;5032236;28;20163;-73
2021/09/25 11:58:05;;;;;;;2.92;1.55;;;29.20;31.30;;;;;;5032277;28;20063;-74
2021/09/25 12:00:52;;;;;;;2.28;1.60;;;29.50;31.20;;;;;;5031967;28;20053;-73
2021/09/25 12:03:20;;;;;;;2.40;1.40;;;29.70;30.90;;;;;;5032144;28;20018;-73
2021/09/25 12:05:49;;;;;;;2.75;1.50;;;29.90;30.40;;;;;;5032112;28;20142;-73
2021/09/25 12:08:19;;;;;;;2.80;1.63;;;30.10;30.20;;;;;;5032097;28;20037;-73
2021/09/25 12:10:52;;;;;;;3.20;1.85;;;29.80;29.80;;;;;;5032167;28;20033;-73
2021/09/25 12:13:21;;;;;;;3.58;1.75;;;29.50;30.50;;;;;;5032135;28;20037;-74
2021/09/25 12:15:49;;;;;;;1.70;1.60;;;29.30;31.80;;;;;;5031508;28;20101;-73
2021/09/25 12:18:21;;;;;;;1.92;1.58;;;29.10;32.30;;;;;;5032028;28;20024;-73
2021/09/25 12:20:50;;;;;;;2.53;1.60;;;29.50;32.00;;;;;;5032073;28;20022;-75
2021/09/25 12:23:21;;;;;;;3.83;2.10;;;30.00;31.10;;;;;;5013330;28;20095;-74
2021/09/25 12:25:47;;;;;;;3.55;1.63;;;30.30;31.00;;;;;;5031938;28;20044;-73
2021/09/25 12:28:44;;;;;;;1.70;1.60;;;30.60;30.20;;;;;;5032167;28;20021;-74
2021/09/25 12:31:14;;;;;;;2.22;1.67;;;30.60;28.50;;;;;;5032154;28;20033;-74
2021/09/25 12:33:53;;;;;;;1.65;1.50;;;30.70;27.90;;;;;;5031957;28;20088;-74
2021/09/25 12:36:19;;;;;;;1.55;1.45;;;30.80;27.60;;;;;;5013874;28;20362;-74
2021/09/25 12:38:46;;;;;;;1.42;1.30;;;31.00;28.30;;;;;;5015864;28;20110;-74
2021/09/25 12:41:20;;;;;;;1.85;1.45;;;31.10;27.70;;;;;;5017344;28;20101;-74
2021/09/25 12:43:55;;;;;;;1.65;1.30;;;31.40;28.20;;;;;;5018015;28;20477;-73
2021/09/25 12:46:22;;;;;;;;;;;31.50;27.30;;;;;;5035854;28;20038;-74
2021/09/25 12:49:07;;;;;;;1.88;1.77;;;31.50;27.60;;;;;;5035631;28;19905;-74